Time;durP1;ratioP1;P1;durP2;ratioP2;P2;SDS_P1;SDS_P2;PMS_P1;PMS_P2;Temp;Humidity;BMP_temperature;BMP_pressure;BME280_temperature;BME280_humidity;BME280_pressure;Samples;Min_cycle;Max_cycle;Signal;HPM_P1;HPM_P2
2023/05/19 00:01:44;;;;;;;3.63;2.73;;;;;;;12.35;88.30;96874.53;5077882;28;20203;-60
2023/05/19 00:04:13;;;;;;;5.23;3.10;;;;;;;12.36;87.25;96873.56;5076910;28;20230;-60
2023/05/19 00:06:41;;;;;;;4.10;2.90;;;;;;;12.32;87.61;96875.66;5074288;28;20218;-61
2023/05/19 00:09:12;;;;;;;5.90;2.70;;;;;;;12.29;87.03;96870.63;5073216;28;20257;-59
2023/05/19 00:11:39;;;;;;;3.67;2.50;;;;;;;12.33;87.48;96864.03;5073669;28;20237;-59
2023/05/19 00:14:08;;;;;;;5.03;2.90;;;;;;;12.38;88.92;96866.25;5072961;28;20210;-60
2023/05/19 00:16:35;;;;;;;3.40;3.10;;;;;;;12.30;87.70;96863.50;5073542;28;20206;-60
2023/05/19 00:19:03;;;;;;;7.07;3.00;;;;;;;12.33;87.63;96864.03;5073286;28;20202;-59
2023/05/19 00:21:30;;;;;;;4.07;2.50;;;;;;;12.33;87.45;96858.75;5073434;28;20226;-60
2023/05/19 00:23:57;;;;;;;6.57;2.70;;;;;;;12.35;87.67;96858.59;5072690;28;20226;-59
2023/05/19 00:26:27;;;;;;;6.87;3.20;;;;;;;12.31;86.99;96854.59;5073508;28;20214;-60
2023/05/19 00:28:54;;;;;;;3.43;2.60;;;;;;;12.36;87.10;96854.97;5072614;28;20531;-60
2023/05/19 00:31:21;;;;;;;5.93;2.90;;;;;;;12.34;87.46;96860.41;5073044;28;20252;-59
2023/05/19 00:33:47;;;;;;;4.70;2.67;;;;;;;12.29;87.09;96854.72;5072694;28;20202;-59
2023/05/19 00:36:14;;;;;;;4.10;2.60;;;;;;;12.30;87.40;96850.25;5072766;28;20225;-59
2023/05/19 00:38:40;;;;;;;3.77;2.67;;;;;;;12.31;87.90;96852.75;5072853;28;20564;-60
2023/05/19 00:41:07;;;;;;;2.90;2.53;;;;;;;12.31;87.87;96851.94;5073358;28;20199;-60
2023/05/19 00:43:35;;;;;;;2.87;2.67;;;;;;;12.32;88.08;96848.31;5072441;28;20233;-60
2023/05/19 00:46:02;;;;;;;3.53;2.50;;;;;;;12.33;87.49;96847.28;5073103;28;20508;-61
2023/05/19 00:48:28;;;;;;;2.80;2.50;;;;;;;12.29;88.47;96845.94;5072763;28;20510;-60
2023/05/19 00:51:00;;;;;;;3.37;2.50;;;;;;;12.25;87.41;96831.31;5072893;28;20210;-61
2023/05/19 00:53:27;;;;;;;4.37;2.77;;;;;;;12.27;87.96;96846.09;5072162;28;20206;-60
2023/05/19 00:55:53;;;;;;;2.67;2.30;;;;;;;12.26;89.10;96833.81;5072846;28;20332;-60
2023/05/19 00:58:20;;;;;;;4.70;2.70;;;;;;;12.23;89.38;96828.81;5071935;28;20209;-61
2023/05/19 01:00:48;;;;;;;3.23;2.63;;;;;;;12.18;88.88;96833.72;5075698;28;20211;-60
2023/05/19 01:03:19;;;;;;;2.93;2.60;;;;;;;12.18;88.97;96835.53;5075984;28;20248;-59
2023/05/19 01:05:46;;;;;;;4.77;2.47;;;;;;;12.16;89.49;96833.03;5075488;28;20221;-60
2023/05/19 01:08:13;;;;;;;3.23;2.73;;;;;;;12.19;89.49;96831.88;5077597;28;20211;-60
2023/05/19 01:10:39;;;;;;;3.17;2.40;;;;;;;12.17;89.87;96824.09;5076900;28;20233;-60
2023/05/19 01:13:06;;;;;;;4.20;2.60;;;;;;;12.13;89.32;96829.84;5071409;28;20202;-60
2023/05/19 01:15:33;;;;;;;3.10;2.77;;;;;;;12.10;89.99;96827.50;5071446;28;20551;-60
2023/05/19 01:18:06;;;;;;;3.97;3.30;;;;;;;12.07;89.38;96833.09;5071893;28;20771;-61
2023/05/19 01:20:37;;;;;;;3.63;2.60;;;;;;;12.09;91.88;96834.59;5072152;28;20222;-60
2023/05/19 01:23:24;;;;;;;4.50;2.23;;;;;;;12.08;91.31;96829.47;5071789;28;20227;-60
2023/05/19 01:26:09;;;;;;;2.87;2.50;;;;;;;12.07;90.68;96822.50;5072138;28;20244;-60
2023/05/19 01:29:08;;;;;;;4.57;3.07;;;;;;;12.02;90.24;96824.72;5071107;28;20214;-60
2023/05/19 01:31:38;;;;;;;3.03;2.63;;;;;;;12.02;92.12;96827.38;5072501;28;20245;-61
2023/05/19 01:34:06;;;;;;;5.60;2.40;;;;;;;12.00;92.71;96837.31;5071887;28;20281;-60
2023/05/19 01:36:34;;;;;;;2.80;2.30;;;;;;;11.96;91.80;96831.47;5071784;28;20295;-60
2023/05/19 01:39:01;;;;;;;3.23;2.67;;;;;;;11.95;91.98;96824.50;5071910;28;20305;-60
2023/05/19 01:41:28;;;;;;;3.30;2.70;;;;;;;11.96;94.79;96832.31;5070349;28;20671;-60
2023/05/19 01:43:56;;;;;;;3.10;2.40;;;;;;;11.90;96.89;96832.88;5071980;28;20210;-60
2023/05/19 01:46:23;;;;;;;2.60;2.40;;;;;;;11.94;95.04;96828.94;5072215;28;20206;-60
2023/05/19 01:48:52;;;;;;;4.60;2.53;;;;;;;11.89;96.60;96831.22;5072215;28;20589;-61
2023/05/19 01:51:18;;;;;;;3.87;2.67;;;;;;;11.89;94.28;96835.69;5071880;28;20213;-61
2023/05/19 01:53:45;;;;;;;2.60;2.40;;;;;;;11.86;94.07;96836.81;5071614;28;20195;-60
2023/05/19 01:56:12;;;;;;;2.93;2.13;;;;;;;11.84;93.92;96838.78;5071662;28;20222;-61
2023/05/19 01:58:44;;;;;;;2.77;2.47;;;;;;;11.86;98.15;96834.16;5071434;28;20194;-61
2023/05/19 02:01:16;;;;;;;2.93;2.73;;;;;;;11.79;95.43;96833.09;5071979;28;20569;-60
2023/05/19 02:03:58;;;;;;;2.90;2.60;;;;;;;11.80;93.38;96836.53;5071384;28;20206;-60
2023/05/19 02:06:32;;;;;;;3.20;2.67;;;;;;;11.80;93.81;96832.09;5071508;28;20191;-60
2023/05/19 02:09:03;;;;;;;3.03;2.70;;;;;;;11.83;94.60;96831.78;5070826;28;20232;-60
2023/05/19 02:11:35;;;;;;;2.90;2.57;;;;;;;11.81;94.10;96835.56;5071640;28;21299;-60
2023/05/19 02:14:04;;;;;;;3.47;2.47;;;;;;;11.75;92.98;96829.06;5070884;28;20202;-59
2023/05/19 02:16:31;;;;;;;2.93;2.60;;;;;;;11.78;94.74;96834.06;5070953;28;20214;-59
2023/05/19 02:19:01;;;;;;;2.53;2.33;;;;;;;11.77;93.94;96829.72;5070629;28;20284;-60
2023/05/19 02:21:27;;;;;;;3.77;2.77;;;;;;;11.77;93.55;96831.53;5071107;28;20199;-60
2023/05/19 02:23:53;;;;;;;2.63;2.40;;;;;;;11.76;93.32;96832.53;5074207;28;20241;-59
2023/05/19 02:26:20;;;;;;;3.40;2.53;;;;;;;11.72;92.92;96826.69;5075227;28;20206;-59
2023/05/19 02:28:46;;;;;;;3.57;2.63;;;;;;;11.72;93.44;96832.00;5074031;28;20210;-61
2023/05/19 02:31:13;;;;;;;3.33;2.73;;;;;;;11.70;94.14;96817.19;5071630;28;20615;-60
2023/05/19 02:33:40;;;;;;;4.10;2.30;;;;;;;11.72;95.15;96815.28;5070089;28;20642;-60
2023/05/19 02:36:10;;;;;;;2.90;2.70;;;;;;;11.69;95.47;96818.19;5070668;28;20230;-61
2023/05/19 02:38:36;;;;;;;2.60;2.40;;;;;;;11.67;95.84;96818.31;5070698;28;20202;-60
2023/05/19 02:41:03;;;;;;;3.80;2.50;;;;;;;11.63;94.58;96816.09;5071061;28;20209;-59
2023/05/19 02:43:30;;;;;;;6.17;2.63;;;;;;;11.65;94.60;96811.50;5070744;28;20195;-60
2023/05/19 02:45:56;;;;;;;3.80;2.70;;;;;;;11.63;96.34;96806.34;5070845;28;20325;-60
2023/05/19 02:48:23;;;;;;;3.13;2.50;;;;;;;11.61;96.41;96808.31;5070401;28;20273;-60
2023/05/19 02:50:49;;;;;;;2.67;2.47;;;;;;;11.56;95.35;96807.91;5070476;28;20207;-61
2023/05/19 02:53:17;;;;;;;4.07;2.80;;;;;;;11.54;95.47;96804.56;5069875;28;20268;-61
2023/05/19 02:55:44;;;;;;;3.40;3.10;;;;;;;11.54;95.56;96809.03;5070189;28;20234;-59
2023/05/19 02:58:10;;;;;;;4.33;2.40;;;;;;;11.55;95.70;96814.16;5070348;28;20198;-61
2023/05/19 03:00:37;;;;;;;2.73;2.53;;;;;;;11.55;95.53;96808.88;5071239;28;20226;-60
2023/05/19 03:03:03;;;;;;;2.60;2.40;;;;;;;11.52;95.43;96801.22;5070982;28;20228;-59
2023/05/19 03:05:31;;;;;;;2.83;2.63;;;;;;;11.49;95.62;96812.09;5072181;28;20631;-60
2023/05/19 03:07:57;;;;;;;2.70;2.50;;;;;;;11.52;96.14;96803.84;5070913;28;20203;-60
2023/05/19 03:10:25;;;;;;;3.77;2.70;;;;;;;11.52;96.65;96803.03;5071734;28;21128;-61
2023/05/19 03:12:52;;;;;;;2.73;2.53;;;;;;;11.52;96.39;96800.38;5071211;28;20214;-60
2023/05/19 03:15:19;;;;;;;3.70;2.50;;;;;;;11.51;96.75;96807.50;5071826;28;20570;-61
2023/05/19 03:17:46;;;;;;;3.07;2.50;;;;;;;11.51;96.82;96802.22;5071977;28;20317;-60
2023/05/19 03:20:14;;;;;;;3.87;2.90;;;;;;;11.48;97.26;96800.66;5072499;28;20221;-60
2023/05/19 03:22:41;;;;;;;2.73;2.53;;;;;;;11.39;96.26;96801.56;5071092;28;20226;-60
2023/05/19 03:25:08;;;;;;;3.13;2.60;;;;;;;11.43;96.11;96802.94;5070908;28;20643;-60
2023/05/19 03:27:35;;;;;;;3.33;2.70;;;;;;;11.40;97.79;96805.03;5070619;28;20219;-60
2023/05/19 03:30:02;;;;;;;2.93;2.70;;;;;;;11.37;97.05;96803.50;5069988;28;20210;-60
2023/05/19 03:32:28;;;;;;;2.80;2.60;;;;;;;11.39;99.00;96795.41;5069698;28;20675;-60
2023/05/19 03:34:55;;;;;;;2.70;2.50;;;;;;;11.36;97.64;96808.94;5070064;28;20328;-60
2023/05/19 03:37:21;;;;;;;2.73;2.53;;;;;;;11.36;97.97;96811.59;5070274;28;20202;-59
2023/05/19 03:39:48;;;;;;;4.03;2.83;;;;;;;11.36;97.79;96817.72;5070006;28;20202;-59
2023/05/19 03:42:14;;;;;;;2.93;2.73;;;;;;;11.35;98.08;96816.03;5070082;28;20202;-60
2023/05/19 03:44:43;;;;;;;2.13;2.00;;;;;;;11.37;99.05;96818.56;5070065;28;20203;-59
2023/05/19 03:47:09;;;;;;;3.37;2.70;;;;;;;11.35;98.91;96823.16;5069903;28;20198;-61
2023/05/19 03:49:36;;;;;;;3.00;2.70;;;;;;;11.31;99.21;96819.97;5070018;28;20195;-61
2023/05/19 03:52:02;;;;;;;3.43;3.13;;;;;;;11.34;98.10;96822.31;5070182;28;20265;-60
2023/05/19 03:54:29;;;;;;;2.90;2.60;;;;;;;11.36;99.18;96819.53;5069923;28;20682;-60
2023/05/19 03:56:55;;;;;;;3.77;2.90;;;;;;;11.33;100.00;96817.19;5068924;28;20222;-61
2023/05/19 03:59:23;;;;;;;4.53;3.37;;;;;;;11.35;99.64;96820.50;5070087;28;20198;-62
2023/05/19 04:01:51;;;;;;;3.63;2.87;;;;;;;11.30;98.42;96820.13;5070078;28;20215;-60
2023/05/19 04:04:17;;;;;;;3.47;3.17;;;;;;;11.34;98.41;96822.31;5072504;28;20527;-60
2023/05/19 04:06:44;;;;;;;2.83;2.63;;;;;;;11.36;100.00;96824.84;5073463;28;20669;-60
2023/05/19 04:09:12;;;;;;;3.07;2.73;;;;;;;11.29;98.75;96816.63;5072945;28;20252;-60
2023/05/19 04:11:39;;;;;;;3.40;2.77;;;;;;;11.35;99.52;96824.00;5073498;28;20309;-60
2023/05/19 04:14:05;;;;;;;3.50;3.13;;;;;;;11.34;99.40;96824.13;5072408;28;20214;-59
2023/05/19 04:16:32;;;;;;;5.33;3.00;;;;;;;11.41;98.56;96826.06;5072625;28;20218;-60
2023/05/19 04:19:00;;;;;;;2.90;2.70;;;;;;;11.40;99.36;96836.81;5073178;28;20203;-60
2023/05/19 04:21:26;;;;;;;3.40;3.07;;;;;;;11.44;100.00;96835.56;5073240;28;20203;-59
2023/05/19 04:23:53;;;;;;;3.20;2.90;;;;;;;11.39;99.73;96837.78;5072665;28;20238;-61
2023/05/19 04:26:21;;;;;;;3.67;3.03;;;;;;;11.44;99.40;96840.84;5073571;28;20197;-60
2023/05/19 04:28:47;;;;;;;3.33;3.03;;;;;;;11.45;98.46;96831.91;5072179;28;20293;-61
2023/05/19 04:31:14;;;;;;;4.30;2.90;;;;;;;11.48;100.00;96835.09;5073346;28;20202;-61
2023/05/19 04:33:41;;;;;;;5.00;2.80;;;;;;;11.55;100.00;96832.69;5072919;28;20563;-61
2023/05/19 04:36:10;;;;;;;5.47;3.00;;;;;;;11.57;100.00;96833.41;5073223;28;20572;-60
2023/05/19 04:38:38;;;;;;;3.53;3.23;;;;;;;11.69;99.42;96837.53;5073013;28;20207;-61
2023/05/19 04:41:05;;;;;;;3.93;3.13;;;;;;;11.80;100.00;96842.69;5073252;28;20550;-60
2023/05/19 04:43:32;;;;;;;4.43;3.30;;;;;;;11.78;97.38;96841.16;5072444;28;20624;-60
2023/05/19 04:45:58;;;;;;;3.43;2.97;;;;;;;11.80;96.73;96842.69;5074712;28;20210;-60
2023/05/19 04:48:24;;;;;;;3.20;2.90;;;;;;;11.91;96.13;96845.16;5075125;28;20551;-61
2023/05/19 04:50:51;;;;;;;3.50;2.60;;;;;;;12.06;95.53;96842.84;5074439;28;20202;-60
2023/05/19 04:53:20;;;;;;;5.37;3.03;;;;;;;12.15;94.71;96849.09;5075521;28;20207;-60
2023/05/19 04:55:47;;;;;;;3.00;2.80;;;;;;;12.27;94.96;96847.91;5074556;28;20222;-60
2023/05/19 04:58:13;;;;;;;3.20;2.70;;;;;;;12.22;93.61;96850.19;5073780;28;20229;-61
2023/05/19 05:00:40;;;;;;;3.50;2.87;;;;;;;12.31;93.30;96847.47;5072955;28;20211;-60
2023/05/19 05:03:06;;;;;;;4.83;3.00;;;;;;;12.35;94.28;96850.66;5071284;28;20639;-59
2023/05/19 05:05:33;;;;;;;3.40;3.13;;;;;;;12.30;94.33;96852.91;5072063;28;20290;-60
2023/05/19 05:07:59;;;;;;;3.10;2.80;;;;;;;12.31;95.96;96855.41;5071928;28;20634;-62
2023/05/19 05:10:27;;;;;;;4.60;2.93;;;;;;;12.22;95.23;96853.63;5072453;28;20221;-62
2023/05/19 05:12:54;;;;;;;3.37;3.00;;;;;;;12.25;95.09;96847.22;5071521;28;20221;-63
2023/05/19 05:15:23;;;;;;;2.80;2.57;;;;;;;12.25;95.21;96849.88;5071591;28;20226;-60
2023/05/19 05:17:50;;;;;;;3.10;2.90;;;;;;;12.14;95.47;96847.44;5071789;28;20241;-61
2023/05/19 05:20:18;;;;;;;3.83;2.90;;;;;;;12.23;96.89;96851.81;5072425;28;20198;-61
2023/05/19 05:22:45;;;;;;;3.00;2.80;;;;;;;12.21;95.48;96851.16;5072201;28;20242;-61
2023/05/19 05:25:13;;;;;;;3.17;2.87;;;;;;;12.21;94.59;96841.38;5072803;28;20699;-60
2023/05/19 05:27:42;;;;;;;2.97;2.77;;;;;;;12.12;95.24;96850.22;5073310;28;20198;-61
2023/05/19 05:30:08;;;;;;;4.60;2.90;;;;;;;12.03;95.50;96848.47;5072424;28;20256;-61
2023/05/19 05:32:35;;;;;;;4.00;2.80;;;;;;;12.05;95.31;96841.19;5073385;28;20215;-61
2023/05/19 05:35:02;;;;;;;3.20;2.90;;;;;;;12.03;94.78;96839.66;5072093;28;20547;-61
2023/05/19 05:37:28;;;;;;;4.23;2.90;;;;;;;11.98;96.81;96846.22;5072678;28;20250;-61
2023/05/19 05:39:55;;;;;;;3.50;3.20;;;;;;;11.97;96.02;96839.25;5072970;28;20207;-60
2023/05/19 05:42:21;;;;;;;3.90;2.90;;;;;;;11.89;97.11;96847.13;5072011;28;20214;-60
2023/05/19 05:44:49;;;;;;;5.37;3.40;;;;;;;11.82;96.02;96846.03;5071558;28;20218;-59
2023/05/19 05:47:17;;;;;;;3.40;3.10;;;;;;;11.80;96.07;96847.97;5072204;28;20293;-60
2023/05/19 05:49:46;;;;;;;4.03;2.90;;;;;;;11.80;97.39;96847.97;5071653;28;20285;-59
2023/05/19 05:52:13;;;;;;;3.27;2.93;;;;;;;11.82;97.15;96843.41;5071826;28;20206;-64
2023/05/19 05:54:40;;;;;;;3.80;3.33;;;;;;;11.77;97.08;96848.28;5071770;28;20213;-60
2023/05/19 05:57:08;;;;;;;5.17;3.50;;;;;;;11.63;96.68;96843.41;5071878;28;20230;-59
2023/05/19 05:59:34;;;;;;;4.10;3.00;;;;;;;11.66;96.88;96843.13;5070887;28;20195;-61
2023/05/19 06:02:02;;;;;;;3.50;3.20;;;;;;;11.64;97.13;96845.09;5072119;28;20198;-61
2023/05/19 06:04:29;;;;;;;3.47;3.17;;;;;;;11.67;99.28;96844.81;5069602;28;20205;-60
2023/05/19 06:06:59;;;;;;;4.90;3.70;;;;;;;11.65;97.04;96849.44;5070426;28;20202;-59
2023/05/19 06:09:26;;;;;;;7.30;4.13;;;;;;;11.60;97.21;96848.16;5071497;28;20214;-61
2023/05/19 06:11:53;;;;;;;3.50;3.20;;;;;;;11.54;96.80;96852.25;5071335;28;20219;-61
2023/05/19 06:14:20;;;;;;;6.67;3.80;;;;;;;11.44;96.09;96851.44;5070375;28;20210;-60
2023/05/19 06:16:46;;;;;;;4.13;3.73;;;;;;;11.42;96.36;96848.06;5069900;28;20230;-60
2023/05/19 06:19:14;;;;;;;3.97;3.43;;;;;;;11.35;97.02;96846.97;5070371;28;20704;-61
2023/05/19 06:21:42;;;;;;;3.80;3.13;;;;;;;11.40;97.24;96844.75;5071903;28;20195;-61
2023/05/19 06:24:08;;;;;;;4.20;3.43;;;;;;;11.43;97.36;96844.47;5070713;28;20245;-61
2023/05/19 06:26:35;;;;;;;5.13;3.60;;;;;;;11.49;96.69;96842.06;5071135;28;20212;-61
2023/05/19 06:29:01;;;;;;;4.83;3.50;;;;;;;11.45;97.58;96853.09;5069948;28;20264;-60
2023/05/19 06:31:28;;;;;;;4.10;3.50;;;;;;;11.34;98.55;96853.25;5071468;28;20206;-62
2023/05/19 06:33:55;;;;;;;7.77;4.30;;;;;;;11.39;98.61;96858.97;5069783;28;20221;-60
2023/05/19 06:36:23;;;;;;;6.37;3.40;;;;;;;11.40;98.99;96858.00;5070802;28;20670;-60
2023/05/19 06:38:49;;;;;;;3.83;3.43;;;;;;;11.43;98.84;96850.59;5070282;28;20635;-61
2023/05/19 06:41:16;;;;;;;5.27;3.80;;;;;;;11.33;98.49;96854.25;5070612;28;20209;-59
2023/05/19 06:43:42;;;;;;;4.00;3.70;;;;;;;11.32;97.56;96852.56;5068678;28;20650;-61
2023/05/19 06:46:09;;;;;;;4.73;3.80;;;;;;;11.30;97.14;96859.81;5070383;28;20194;-61
2023/05/19 06:48:35;;;;;;;6.17;4.10;;;;;;;11.29;98.43;96855.50;5070584;28;20202;-61
2023/05/19 06:51:02;;;;;;;4.37;3.97;;;;;;;11.39;98.11;96864.25;5070879;28;21502;-60
2023/05/19 06:53:30;;;;;;;10.10;4.53;;;;;;;11.35;99.27;96857.56;5070259;28;20222;-60
2023/05/19 06:55:57;;;;;;;4.00;3.70;;;;;;;11.41;100.00;96863.13;5070574;28;20209;-61
2023/05/19 06:58:23;;;;;;;3.73;3.40;;;;;;;11.47;99.99;96859.94;5070342;28;20217;-61
2023/05/19 07:00:50;;;;;;;5.37;3.53;;;;;;;11.53;100.00;96861.16;5070193;28;20256;-60
2023/05/19 07:03:16;;;;;;;4.53;4.13;;;;;;;11.49;98.60;96863.25;5070531;28;20669;-59
2023/05/19 07:05:43;;;;;;;3.80;3.50;;;;;;;11.55;99.25;96871.63;5070371;28;20214;-61
2023/05/19 07:08:09;;;;;;;4.43;3.83;;;;;;;11.55;96.21;96872.44;5070358;28;20204;-62
2023/05/19 07:10:37;;;;;;;4.37;3.70;;;;;;;11.55;97.75;96872.44;5069691;28;20676;-59
2023/05/19 07:13:04;;;;;;;3.80;3.50;;;;;;;11.62;97.69;96876.16;5072315;28;20246;-60
2023/05/19 07:15:30;;;;;;;5.33;4.00;;;;;;;11.66;95.48;96876.72;5073747;28;20198;-61
2023/05/19 07:17:58;;;;;;;5.87;4.13;;;;;;;11.73;96.47;96878.69;5074264;28;20233;-62
2023/05/19 07:20:24;;;;;;;4.30;3.90;;;;;;;11.82;96.65;96877.84;5072791;28;20210;-60
2023/05/19 07:22:51;;;;;;;4.60;4.20;;;;;;;11.81;95.82;96875.31;5071379;28;20277;-61
2023/05/19 07:25:18;;;;;;;6.33;4.57;;;;;;;11.86;96.20;96868.63;5073484;28;20202;-59
2023/05/19 07:27:45;;;;;;;5.40;4.00;;;;;;;11.91;95.21;96866.34;5074441;28;20206;-59
2023/05/19 07:30:12;;;;;;;4.20;3.80;;;;;;;11.92;94.90;96860.06;5076078;28;20202;-61
2023/05/19 07:32:39;;;;;;;5.83;3.97;;;;;;;11.87;94.87;96859.66;5073312;28;20209;-60
2023/05/19 07:35:07;;;;;;;4.30;3.90;;;;;;;11.90;96.30;96863.88;5072799;28;20205;-59
2023/05/19 07:37:33;;;;;;;7.50;4.80;;;;;;;11.91;95.82;96860.22;5071449;28;20237;-59
2023/05/19 07:40:00;;;;;;;5.63;4.10;;;;;;;11.94;94.68;96860.75;5075737;28;20218;-60
2023/05/19 07:42:26;;;;;;;4.30;3.90;;;;;;;12.01;94.87;96857.53;5076786;28;20301;-59
2023/05/19 07:44:54;;;;;;;4.30;3.90;;;;;;;12.15;94.77;96857.06;5074471;28;20540;-59
2023/05/19 07:47:21;;;;;;;5.07;4.07;;;;;;;12.17;93.48;96861.22;5074663;28;20195;-60
2023/05/19 07:49:48;;;;;;;4.10;3.77;;;;;;;12.24;93.31;96862.28;5075074;28;20202;-59
2023/05/19 07:52:17;;;;;;;5.57;4.23;;;;;;;12.31;93.33;96862.53;5074999;28;20222;-60
2023/05/19 07:54:43;;;;;;;5.97;3.70;;;;;;;12.28;92.36;96868.13;5073660;28;20209;-59
2023/05/19 07:57:10;;;;;;;4.63;4.13;;;;;;;12.27;91.86;96869.13;5075048;28;20229;-59
2023/05/19 07:59:36;;;;;;;5.13;4.07;;;;;;;12.27;93.71;96869.13;5072929;28;20897;-59
2023/05/19 08:02:05;;;;;;;5.33;4.20;;;;;;;12.37;92.43;96865.44;5074831;28;20209;-60
2023/05/19 08:04:31;;;;;;;4.27;3.87;;;;;;;12.31;92.47;96867.84;5074099;28;20214;-60
2023/05/19 08:06:58;;;;;;;4.20;3.77;;;;;;;12.34;92.38;96857.78;5073519;28;20298;-60
2023/05/19 08:09:25;;;;;;;4.60;4.20;;;;;;;12.29;92.73;96848.59;5071689;28;20194;-61
2023/05/19 08:11:51;;;;;;;4.47;3.70;;;;;;;12.22;92.46;96856.28;5072552;28;20600;-60
2023/05/19 08:14:18;;;;;;;5.30;4.33;;;;;;;12.24;92.81;96861.47;5074065;28;20221;-59
2023/05/19 08:16:45;;;;;;;4.83;4.30;;;;;;;12.21;92.31;96851.16;5072973;28;20218;-61
2023/05/19 08:19:13;;;;;;;4.40;4.00;;;;;;;12.23;92.84;96851.81;5074427;28;20229;-60
2023/05/19 08:21:43;;;;;;;6.27;4.67;;;;;;;12.25;94.05;96855.19;5074190;28;20828;-59
2023/05/19 08:24:10;;;;;;;4.33;3.80;;;;;;;12.28;93.34;96849.56;5075807;28;20207;-59
2023/05/19 08:26:36;;;;;;;7.10;4.30;;;;;;;12.29;93.95;96838.81;5075210;28;20202;-63
2023/05/19 08:29:03;;;;;;;6.60;4.30;;;;;;;12.36;97.34;96852.34;5073797;28;20221;-62
2023/05/19 08:31:30;;;;;;;5.20;4.70;;;;;;;12.39;95.72;96834.31;5076288;28;20203;-62
2023/05/19 08:33:56;;;;;;;5.10;4.57;;;;;;;12.44;96.48;96837.31;5075579;28;20639;-62
2023/05/19 08:36:28;;;;;;;5.17;4.30;;;;;;;12.49;95.94;96839.53;5075055;28;20260;-62
2023/05/19 08:38:55;;;;;;;4.40;4.00;;;;;;;12.64;96.87;96837.19;5078499;28;20280;-61
2023/05/19 08:41:23;;;;;;;5.03;4.43;;;;;;;12.72;95.69;96835.44;5077682;28;20631;-61
2023/05/19 08:43:49;;;;;;;7.17;4.40;;;;;;;12.73;95.50;96842.44;5076913;28;20206;-63
2023/05/19 08:46:17;;;;;;;4.90;4.40;;;;;;;12.82;93.97;96835.38;5075451;28;20723;-61
2023/05/19 08:48:44;;;;;;;6.83;4.37;;;;;;;12.83;91.60;96842.34;5076341;28;20210;-60
2023/05/19 08:51:18;;;;;;;5.63;4.57;;;;;;;12.91;91.69;96840.59;5073019;28;20234;-61
2023/05/19 08:53:48;;;;;;;4.13;3.73;;;;;;;12.86;91.74;96834.91;5073272;28;20226;-60
2023/05/19 08:56:20;;;;;;;5.67;4.70;;;;;;;12.87;90.79;96839.25;5073299;28;20226;-60
2023/05/19 08:58:50;;;;;;;6.70;5.33;;;;;;;12.84;91.23;96833.41;5071626;28;20650;-60
2023/05/19 09:01:17;;;;;;;5.20;4.70;;;;;;;12.90;91.25;96828.31;5072836;28;20210;-60
2023/05/19 09:03:44;;;;;;;6.77;4.50;;;;;;;12.84;90.06;96828.09;5073453;28;20221;-60
2023/05/19 09:06:12;;;;;;;5.07;4.57;;;;;;;12.80;90.46;96832.88;5072428;28;20205;-61
2023/05/19 09:08:41;;;;;;;5.43;4.67;;;;;;;12.63;91.20;96835.53;5072377;28;20209;-61
2023/05/19 09:11:10;;;;;;;5.30;4.70;;;;;;;12.78;91.77;96826.06;5073362;28;20271;-61
2023/05/19 09:13:37;;;;;;;5.53;4.60;;;;;;;12.82;92.06;96825.56;5072646;28;20532;-61
2023/05/19 09:16:05;;;;;;;5.20;4.20;;;;;;;12.78;90.63;96826.06;5073690;28;20214;-60
2023/05/19 09:18:31;;;;;;;8.97;5.00;;;;;;;12.80;92.26;96827.56;5073067;28;20729;-61
2023/05/19 09:20:59;;;;;;;5.63;4.37;;;;;;;12.75;91.09;96832.47;5073202;28;20206;-62
2023/05/19 09:23:28;;;;;;;6.20;4.67;;;;;;;12.52;90.99;96828.63;5073013;28;20238;-60
2023/05/19 09:25:55;;;;;;;6.87;4.80;;;;;;;12.52;92.07;96833.91;5072992;28;20206;-61
2023/05/19 09:28:28;;;;;;;7.57;4.77;;;;;;;12.47;93.06;96826.41;5074226;28;20233;-58
2023/05/19 09:31:02;;;;;;;5.77;4.90;;;;;;;12.46;92.32;96831.88;5073005;28;20225;-58
2023/05/19 09:33:29;;;;;;;6.00;4.93;;;;;;;12.50;92.79;96822.66;5072679;28;20212;-60
2023/05/19 09:35:57;;;;;;;6.30;5.10;;;;;;;12.58;92.90;96817.41;5072473;28;20206;-61
2023/05/19 09:38:24;;;;;;;5.87;5.00;;;;;;;12.71;93.52;96825.84;5085484;28;20226;-62
2023/05/19 09:40:51;;;;;;;5.10;4.60;;;;;;;12.89;93.07;96825.84;5090262;28;20191;-65
2023/05/19 09:43:23;;;;;;;5.40;4.07;;;;;;;13.10;93.05;96833.50;5087451;28;20233;-63
2023/05/19 09:45:55;;;;;;;5.07;4.57;;;;;;;13.19;90.81;96827.25;5073743;28;20552;-62
2023/05/19 09:48:21;;;;;;;5.33;4.67;;;;;;;13.33;90.22;96840.81;5076342;28;20198;-61
2023/05/19 09:50:50;;;;;;;5.67;4.13;;;;;;;13.41;90.74;96826.75;5078763;28;20205;-62
2023/05/19 09:53:17;;;;;;;7.10;4.70;;;;;;;13.39;89.65;96834.88;5081399;28;20598;-60
2023/05/19 09:55:45;;;;;;;5.07;4.40;;;;;;;13.48;88.61;96833.09;5081256;28;20297;-60
2023/05/19 09:58:16;;;;;;;6.53;4.83;;;;;;;13.58;90.15;96831.16;5078108;28;20246;-62
2023/05/19 10:00:43;;;;;;;6.43;4.83;;;;;;;13.52;87.94;96837.13;5072077;28;20198;-63
2023/05/19 10:03:11;;;;;;;6.43;5.83;;;;;;;13.55;88.90;96823.53;5071962;28;20268;-60
2023/05/19 10:05:38;;;;;;;6.23;4.73;;;;;;;13.46;88.46;96829.78;5071703;28;20630;-61
2023/05/19 10:08:09;;;;;;;6.90;4.70;;;;;;;13.54;88.60;96827.16;5071399;28;20214;-60
2023/05/19 10:10:35;;;;;;;4.93;4.43;;;;;;;13.51;89.08;96822.16;5075160;28;20613;-60
2023/05/19 10:13:03;;;;;;;7.53;4.80;;;;;;;13.62;88.80;96824.56;5071520;28;20924;-62
2023/05/19 10:15:30;;;;;;;7.17;5.10;;;;;;;13.65;88.14;96826.91;5073165;28;20210;-61
2023/05/19 10:17:59;;;;;;;4.97;4.50;;;;;;;13.68;88.73;96829.22;5071335;28;20230;-61
2023/05/19 10:20:29;;;;;;;7.57;5.27;;;;;;;13.68;86.84;96831.88;5072043;28;20551;-61
2023/05/19 10:22:55;;;;;;;5.77;4.53;;;;;;;13.80;88.43;96822.66;5071435;28;20234;-61
2023/05/19 10:25:22;;;;;;;5.47;4.83;;;;;;;13.86;87.65;96824.69;5071238;28;20253;-61
2023/05/19 10:27:53;;;;;;;7.47;4.70;;;;;;;13.99;86.25;96818.09;5071228;28;20337;-60
2023/05/19 10:30:25;;;;;;;7.17;4.53;;;;;;;14.11;88.23;96819.47;5079643;28;20271;-62
2023/05/19 10:32:53;;;;;;;6.60;5.30;;;;;;;13.95;84.54;96813.13;5079050;28;20198;-61
2023/05/19 10:35:47;;;;;;;6.90;4.80;;;;;;;13.95;86.42;96815.78;5076880;28;20746;-60
2023/05/19 10:38:21;;;;;;;6.43;4.60;;;;;;;14.12;87.43;96816.66;5072605;28;20215;-59
2023/05/19 10:40:54;;;;;;;6.07;4.83;;;;;;;14.17;86.18;96813.53;5073799;28;20763;-60
2023/05/19 10:43:30;;;;;;;6.63;4.60;;;;;;;14.30;84.30;96811.22;5069755;28;20202;-62
2023/05/19 10:45:57;;;;;;;5.10;4.70;;;;;;;14.35;84.45;96806.28;5071525;28;20296;-59
2023/05/19 10:48:25;;;;;;;7.63;5.03;;;;;;;14.51;83.78;96802.84;5071332;28;20226;-61
2023/05/19 10:50:55;;;;;;;7.93;4.97;;;;;;;14.54;82.82;96806.00;5072354;28;20194;-61
2023/05/19 10:53:21;;;;;;;6.27;4.50;;;;;;;14.66;82.15;96803.88;5070904;28;20194;-61
2023/05/19 10:55:52;;;;;;;5.07;4.50;;;;;;;14.81;82.14;96803.03;5070264;28;20272;-60
2023/05/19 10:58:49;;;;;;;6.67;4.67;;;;;;;15.02;81.60;96815.03;5069742;28;20222;-61
2023/05/19 11:01:17;;;;;;;5.97;5.07;;;;;;;14.99;80.67;96815.34;5071281;28;20514;-60
2023/05/19 11:03:45;;;;;;;4.93;4.27;;;;;;;15.09;80.14;96816.03;5072819;28;20221;-59
2023/05/19 11:06:26;;;;;;;4.53;4.13;;;;;;;15.27;79.50;96808.69;5086060;28;20199;-62
2023/05/19 11:08:59;;;;;;;6.05;4.70;;;;;;;15.44;77.94;96810.34;5080006;28;20262;-60
2023/05/19 11:11:27;;;;;;;8.38;5.45;;;;;;;15.47;78.62;96802.00;5081000;28;20225;-60
2023/05/19 11:13:54;;;;;;;10.57;5.60;;;;;;;15.49;76.52;96802.69;5080761;28;20206;-59
2023/05/19 11:16:27;;;;;;;8.70;5.13;;;;;;;15.92;78.08;96810.25;5075991;28;20207;-58
2023/05/19 11:18:54;;;;;;;6.70;4.75;;;;;;;15.99;75.34;96802.38;5074895;28;20543;-60
2023/05/19 11:21:21;;;;;;;4.80;4.32;;;;;;;16.17;74.87;96794.16;5074102;28;20213;-58
2023/05/19 11:23:53;;;;;;;5.03;4.22;;;;;;;15.98;73.86;96798.06;5074075;28;20715;-62
2023/05/19 11:26:41;;;;;;;5.20;4.07;;;;;;;15.79;74.79;96793.97;5075272;28;20194;-60
2023/05/19 11:29:09;;;;;;;6.15;4.25;;;;;;;15.96;75.02;96788.56;5074590;28;20203;-58
2023/05/19 11:31:36;;;;;;;7.00;4.50;;;;;;;15.83;74.96;96792.63;5073847;28;20285;-58
2023/05/19 11:34:04;;;;;;;6.63;4.90;;;;;;;15.94;75.61;96792.22;5075151;28;20283;-59
2023/05/19 11:36:30;;;;;;;5.28;4.78;;;;;;;15.94;75.87;96792.22;5073968;28;20287;-59
2023/05/19 11:39:01;;;;;;;6.10;4.63;;;;;;;15.83;74.68;96789.13;5075092;28;20222;-59